createdAt,value
2023-05-10T00:00:41.743Z,63.92
2023-05-10T00:03:08.854Z,64.32
2023-05-10T00:05:35.834Z,64.95
2023-05-10T00:08:02.703Z,64.46
2023-05-10T00:10:29.605Z,64.21
2023-05-10T00:12:56.761Z,64.46
2023-05-10T00:15:23.696Z,64.91
2023-05-10T00:17:50.634Z,64.85
2023-05-10T00:20:18.060Z,65.40
2023-05-10T00:22:45.158Z,65.40
2023-05-10T00:25:12.052Z,65.74
2023-05-10T00:27:38.973Z,65.98
2023-05-10T00:30:07.302Z,66.04
2023-05-10T00:32:35.752Z,65.78
2023-05-10T00:35:02.598Z,65.62
2023-05-10T00:37:29.613Z,66.78
2023-05-10T00:39:56.483Z,66.72
2023-05-10T00:42:23.327Z,66.94
2023-05-10T00:44:52.563Z,67.07
2023-05-10T00:47:19.612Z,66.73
2023-05-10T00:49:47.183Z,66.22
2023-05-10T00:52:14.328Z,66.55
2023-05-10T00:54:41.757Z,66.00
2023-05-10T00:57:08.762Z,66.48
2023-05-10T00:59:35.862Z,66.24
2023-05-10T01:02:03.066Z,66.45
2023-05-10T01:04:31.574Z,66.26
2023-05-10T01:06:58.797Z,66.91
2023-05-10T01:09:27.434Z,66.75
2023-05-10T01:11:56.119Z,66.71
2023-05-10T01:14:23.341Z,66.27
2023-05-10T01:16:51.214Z,66.57
2023-05-10T01:19:24.799Z,66.69
2023-05-10T01:22:06.489Z,66.26
2023-05-10T01:24:39.307Z,65.98
2023-05-10T01:27:21.166Z,66.13
2023-05-10T01:29:48.113Z,66.14
2023-05-10T01:32:30.395Z,65.98
2023-05-10T01:35:14.732Z,65.83
2023-05-10T01:38:00.343Z,65.40
2023-05-10T01:40:53.430Z,65.71
2023-05-10T01:43:32.173Z,65.56
2023-05-10T01:46:14.859Z,65.78
2023-05-10T01:48:48.804Z,65.47
2023-05-10T01:51:20.714Z,65.58
2023-05-10T01:53:49.812Z,65.34
2023-05-10T01:56:18.053Z,65.30
2023-05-10T01:58:49.508Z,65.32
2023-05-10T02:01:17.469Z,65.24
2023-05-10T02:03:45.842Z,65.34
2023-05-10T02:06:15.513Z,65.28
2023-05-10T02:08:42.750Z,65.21
2023-05-10T02:11:13.850Z,64.85
2023-05-10T02:13:41.166Z,64.62
2023-05-10T02:16:08.934Z,65.33
2023-05-10T02:18:37.820Z,65.42
2023-05-10T02:21:05.401Z,65.43
2023-05-10T02:23:33.043Z,65.52
2023-05-10T02:26:02.942Z,65.78
2023-05-10T02:28:31.747Z,65.80
2023-05-10T02:30:58.758Z,67.14
2023-05-10T02:33:27.064Z,67.13
2023-05-10T02:35:55.618Z,66.91
2023-05-10T02:38:24.250Z,67.21
2023-05-10T02:40:52.912Z,67.58
2023-05-10T02:43:23.587Z,68.20
2023-05-10T02:45:50.834Z,68.10
2023-05-10T02:48:18.461Z,68.23
2023-05-10T02:50:47.549Z,68.70
2023-05-10T02:53:23.407Z,69.16
2023-05-10T02:55:53.840Z,69.00
2023-05-10T02:58:21.890Z,69.10
2023-05-10T03:00:48.732Z,68.76
2023-05-10T03:03:15.648Z,68.67
2023-05-10T03:05:42.544Z,68.26
2023-05-10T03:08:09.732Z,68.20
2023-05-10T03:11:12.814Z,68.22
2023-05-10T03:13:55.263Z,68.07
2023-05-10T03:16:28.756Z,67.49
2023-05-10T03:19:23.680Z,68.42
2023-05-10T03:21:54.575Z,67.48
2023-05-10T03:24:24.247Z,67.53
2023-05-10T03:26:56.754Z,67.91
2023-05-10T03:29:25.979Z,68.55
2023-05-10T03:31:53.129Z,67.92
2023-05-10T03:34:25.399Z,67.96
2023-05-10T03:36:53.112Z,67.95
2023-05-10T03:39:20.503Z,67.85
2023-05-10T03:41:51.902Z,67.48
2023-05-10T03:44:18.838Z,67.10
2023-05-10T03:46:45.899Z,66.90
2023-05-10T03:49:13.153Z,66.49
2023-05-10T03:51:40.898Z,66.67
2023-05-10T03:54:07.912Z,66.41
2023-05-10T03:56:34.828Z,66.39
2023-05-10T03:59:01.893Z,66.24
2023-05-10T04:01:28.785Z,66.60
2023-05-10T04:03:55.775Z,66.36
2023-05-10T04:06:22.752Z,65.98
2023-05-10T04:08:50.195Z,65.97
2023-05-10T04:11:18.456Z,65.88
2023-05-10T04:13:45.502Z,65.65
2023-05-10T04:16:12.369Z,65.64
2023-05-10T04:18:40.650Z,65.51
2023-05-10T04:21:13.794Z,65.50
2023-05-10T04:23:40.937Z,65.34
2023-05-10T04:26:08.037Z,65.34
2023-05-10T04:28:35.073Z,65.13
2023-05-10T04:31:06.513Z,64.73
2023-05-10T04:33:34.045Z,64.80
2023-05-10T04:36:01.839Z,64.49
2023-05-10T04:38:29.116Z,64.08
2023-05-10T04:41:04.336Z,63.63
2023-05-10T04:43:31.625Z,63.35
2023-05-10T04:45:58.575Z,62.97
2023-05-10T04:48:25.650Z,62.63
2023-05-10T04:50:52.625Z,62.37
2023-05-10T04:53:19.609Z,62.09
2023-05-10T04:55:47.413Z,61.72
2023-05-10T04:58:14.361Z,61.38
2023-05-10T05:00:41.468Z,60.91
2023-05-10T05:03:08.476Z,60.48
2023-05-10T05:05:35.701Z,60.16
2023-05-10T05:08:02.596Z,60.05
2023-05-10T05:10:29.467Z,60.06
2023-05-10T05:12:56.473Z,60.30
2023-05-10T05:15:23.426Z,60.49
2023-05-10T05:17:50.367Z,60.44
2023-05-10T05:20:17.477Z,60.29
2023-05-10T05:22:44.511Z,62.05
2023-05-10T05:25:12.718Z,62.76
2023-05-10T05:27:39.588Z,62.79
2023-05-10T05:30:07.588Z,62.50
2023-05-10T05:32:34.552Z,62.37
2023-05-10T05:35:01.437Z,62.11
2023-05-10T05:37:28.340Z,62.21
2023-05-10T05:39:56.096Z,62.08
2023-05-10T05:42:22.991Z,61.65
2023-05-10T05:44:50.015Z,61.25
2023-05-10T05:47:16.995Z,60.61
2023-05-10T05:49:46.666Z,60.44
2023-05-10T05:52:13.732Z,59.60
2023-05-10T05:54:40.785Z,59.77
2023-05-10T05:57:07.700Z,58.25
2023-05-10T05:59:34.645Z,57.58
2023-05-10T06:02:01.776Z,57.52
2023-05-10T06:04:28.974Z,57.64
2023-05-10T06:06:55.971Z,57.71
2023-05-10T06:09:24.760Z,57.75
2023-05-10T06:11:51.644Z,58.10
2023-05-10T06:14:18.566Z,58.82
2023-05-10T06:16:45.645Z,58.43
2023-05-10T06:19:12.591Z,58.31
2023-05-10T06:21:39.460Z,57.94
2023-05-10T06:24:07.684Z,56.40
2023-05-10T06:26:34.977Z,55.01
2023-05-10T06:29:02.350Z,54.27
2023-05-10T06:31:29.275Z,53.94
2023-05-10T06:33:56.828Z,53.42
2023-05-10T06:36:25.635Z,52.78
2023-05-10T06:38:52.520Z,51.82
2023-05-10T06:41:19.449Z,51.84
2023-05-10T06:43:46.418Z,51.56
2023-05-10T06:46:13.453Z,51.00
2023-05-10T06:48:40.253Z,51.56
2023-05-10T06:51:07.203Z,51.68
2023-05-10T06:53:34.095Z,52.13
2023-05-10T06:56:01.104Z,51.65
2023-05-10T06:58:27.967Z,50.57
2023-05-10T07:00:54.852Z,50.43
2023-05-10T07:03:21.897Z,50.79
2023-05-10T07:05:48.723Z,50.95
2023-05-10T07:08:15.626Z,51.21
2023-05-10T07:10:42.563Z,50.69
2023-05-10T07:13:09.646Z,49.69
2023-05-10T07:15:36.905Z,48.27
2023-05-10T07:18:05.544Z,48.17
2023-05-10T07:20:32.543Z,49.05
2023-05-10T07:22:59.447Z,48.45
2023-05-10T07:25:26.264Z,48.70
2023-05-10T07:27:53.564Z,49.06
2023-05-10T07:30:20.750Z,48.66
2023-05-10T07:32:47.884Z,48.62
2023-05-10T07:35:15.061Z,48.63
2023-05-10T07:37:42.161Z,48.90
2023-05-10T07:40:09.600Z,49.03
2023-05-10T07:42:36.456Z,48.60
2023-05-10T07:45:03.474Z,46.96
2023-05-10T07:47:30.325Z,46.17
2023-05-10T07:49:57.221Z,45.97
2023-05-10T07:52:24.122Z,45.99
2023-05-10T07:54:51.003Z,45.88
2023-05-10T07:57:19.206Z,45.98
2023-05-10T07:59:46.394Z,44.57
2023-05-10T08:02:13.263Z,43.64
2023-05-10T08:04:40.360Z,42.42
2023-05-10T08:07:07.282Z,41.04
2023-05-10T08:09:34.486Z,40.00
2023-05-10T08:12:01.451Z,37.70
2023-05-10T08:14:30.304Z,36.21
2023-05-10T08:16:57.298Z,35.05
2023-05-10T08:19:24.964Z,34.39
2023-05-10T08:21:52.164Z,33.19
2023-05-10T08:24:19.042Z,33.23
2023-05-10T08:26:46.079Z,32.70
2023-05-10T08:29:12.941Z,32.35
2023-05-10T08:31:39.862Z,32.57
2023-05-10T08:34:06.984Z,32.48
2023-05-10T08:36:34.184Z,32.96
2023-05-10T08:39:01.323Z,32.58
2023-05-10T08:41:28.582Z,33.27
2023-05-10T08:43:56.062Z,32.93
2023-05-10T08:46:25.115Z,33.28
2023-05-10T08:48:53.209Z,33.47
2023-05-10T08:51:24.913Z,33.56
2023-05-10T08:53:52.201Z,33.86
2023-05-10T08:56:19.303Z,34.89
2023-05-10T08:58:46.320Z,35.48
2023-05-10T09:01:14.824Z,35.43
2023-05-10T09:03:42.340Z,35.77
2023-05-10T09:06:09.316Z,36.10
2023-05-10T09:08:38.280Z,35.29
2023-05-10T09:11:05.439Z,35.11
2023-05-10T09:13:33.558Z,34.82
2023-05-10T09:16:07.117Z,34.28
2023-05-10T09:18:47.268Z,34.45
2023-05-10T09:21:14.739Z,35.21
2023-05-10T09:23:46.774Z,35.60
2023-05-10T09:26:15.067Z,36.11
2023-05-10T09:28:58.564Z,36.52
2023-05-10T09:31:26.867Z,36.96
2023-05-10T09:33:54.736Z,37.10
2023-05-10T09:36:21.651Z,35.08
2023-05-10T09:38:53.715Z,34.24
2023-05-10T09:41:22.647Z,34.21
2023-05-10T09:43:49.989Z,33.52
2023-05-10T09:46:17.675Z,33.78
2023-05-10T09:48:46.808Z,33.79
2023-05-10T09:51:24.331Z,34.05
2023-05-10T09:54:17.688Z,34.46
2023-05-10T09:56:44.678Z,34.35
2023-05-10T09:59:13.225Z,34.44
2023-05-10T10:01:40.662Z,35.18
2023-05-10T10:04:08.789Z,36.11
2023-05-10T10:06:39.914Z,36.75
2023-05-10T10:09:08.010Z,37.46
2023-05-10T10:11:39.881Z,36.89
2023-05-10T10:14:06.993Z,36.98
2023-05-10T10:16:34.134Z,37.81
2023-05-10T10:19:01.925Z,38.62
2023-05-10T10:21:30.351Z,39.80
2023-05-10T10:23:57.333Z,40.09
2023-05-10T10:26:24.852Z,40.17
2023-05-10T10:29:03.490Z,39.84
2023-05-10T10:31:41.788Z,40.98
2023-05-10T10:34:12.220Z,40.82
2023-05-10T10:36:47.376Z,41.38
2023-05-10T10:39:15.744Z,40.73
2023-05-10T10:41:54.553Z,40.58
2023-05-10T10:44:27.201Z,40.91
2023-05-10T10:47:30.929Z,40.32
2023-05-10T10:50:01.237Z,38.79
2023-05-10T10:52:40.955Z,39.39
2023-05-10T10:55:16.639Z,38.51
2023-05-10T10:57:48.685Z,38.37
2023-05-10T11:00:34.526Z,37.70
2023-05-10T11:03:09.764Z,36.94
2023-05-10T11:05:47.328Z,35.40
2023-05-10T11:08:41.781Z,35.33
2023-05-10T11:11:09.036Z,35.34
2023-05-10T11:13:43.159Z,35.44
2023-05-10T11:16:19.838Z,35.88
2023-05-10T11:19:04.257Z,36.00
2023-05-10T11:21:32.144Z,36.04
2023-05-10T11:24:01.323Z,37.49
2023-05-10T11:26:33.359Z,38.08
2023-05-10T11:29:01.870Z,38.72
2023-05-10T11:31:29.165Z,38.56
2023-05-10T11:33:59.640Z,39.17
2023-05-10T11:36:29.043Z,38.45
2023-05-10T11:38:57.885Z,38.87
2023-05-10T11:41:25.974Z,39.44
2023-05-10T11:43:54.853Z,37.79
2023-05-10T11:46:27.918Z,36.18
2023-05-10T11:49:02.497Z,36.10
2023-05-10T11:51:29.485Z,35.97
2023-05-10T11:53:58.429Z,36.91
2023-05-10T11:56:27.379Z,37.03
2023-05-10T11:58:57.008Z,35.73
2023-05-10T12:01:25.375Z,34.85
2023-05-10T12:03:55.049Z,35.09
2023-05-10T12:06:22.569Z,35.15
2023-05-10T12:08:53.649Z,34.80
2023-05-10T12:11:22.799Z,34.41
2023-05-10T12:13:50.985Z,34.02
2023-05-10T12:16:18.809Z,34.05
2023-05-10T12:18:49.041Z,33.21
2023-05-10T12:21:16.645Z,33.26
2023-05-10T12:23:46.085Z,33.92
2023-05-10T12:26:13.182Z,33.16
2023-05-10T12:28:40.734Z,33.92
2023-05-10T12:31:08.172Z,33.79
2023-05-10T12:33:40.679Z,34.08
2023-05-10T12:36:07.808Z,35.05
2023-05-10T12:38:44.367Z,34.84
2023-05-10T12:41:13.204Z,34.95
2023-05-10T12:43:41.256Z,35.67
2023-05-10T12:46:16.247Z,36.24
2023-05-10T12:48:44.769Z,35.95
2023-05-10T12:51:18.327Z,35.82
2023-05-10T12:53:49.376Z,36.43
2023-05-10T12:56:16.514Z,35.73
2023-05-10T12:58:49.223Z,36.50
2023-05-10T13:01:16.450Z,36.28
2023-05-10T13:03:44.245Z,36.43
2023-05-10T13:06:11.242Z,35.74
2023-05-10T13:08:38.075Z,34.60
2023-05-10T13:11:05.109Z,33.57
2023-05-10T13:13:32.083Z,34.63
2023-05-10T13:15:58.941Z,34.83
2023-05-10T13:18:27.648Z,35.19
2023-05-10T13:20:55.128Z,34.39
2023-05-10T13:23:22.015Z,34.87
2023-05-10T13:25:48.952Z,34.40
2023-05-10T13:28:16.356Z,33.85
2023-05-10T13:30:43.539Z,33.75
2023-05-10T13:33:10.548Z,34.28
2023-05-10T13:35:37.384Z,34.01
2023-05-10T13:38:04.244Z,34.50
2023-05-10T13:40:31.280Z,33.70
2023-05-10T13:42:58.098Z,34.80
2023-05-10T13:45:25.083Z,35.03
2023-05-10T13:47:53.205Z,35.08
2023-05-10T13:50:20.315Z,34.77
2023-05-10T13:52:47.319Z,34.02
2023-05-10T13:55:14.659Z,33.15
2023-05-10T13:57:41.897Z,32.37
2023-05-10T14:00:09.302Z,31.48
2023-05-10T14:02:37.891Z,32.02
2023-05-10T14:05:05.340Z,33.78
2023-05-10T14:07:32.219Z,33.43
2023-05-10T14:09:59.056Z,34.39
2023-05-10T14:12:26.109Z,33.67
2023-05-10T14:14:53.341Z,34.52
2023-05-10T14:17:20.457Z,35.11
2023-05-10T14:19:47.517Z,35.77
2023-05-10T14:22:14.451Z,35.25
2023-05-10T14:24:41.346Z,35.32
2023-05-10T14:27:08.470Z,35.24
2023-05-10T14:29:35.320Z,35.16
2023-05-10T14:32:02.329Z,35.70
2023-05-10T14:34:29.237Z,35.42
2023-05-10T14:36:56.249Z,35.18
2023-05-10T14:39:23.840Z,34.90
2023-05-10T14:41:52.507Z,34.06
2023-05-10T14:44:19.552Z,33.97
2023-05-10T14:46:46.378Z,34.13
2023-05-10T14:49:13.288Z,34.09
2023-05-10T14:51:40.171Z,34.02
2023-05-10T14:54:06.999Z,34.04
2023-05-10T14:56:34.056Z,34.07
2023-05-10T14:59:01.240Z,33.86
2023-05-10T15:01:29.900Z,34.04
2023-05-10T15:03:57.246Z,34.17
2023-05-10T15:06:31.256Z,34.79
2023-05-10T15:08:58.143Z,34.99
2023-05-10T15:11:25.092Z,35.02
2023-05-10T15:13:52.013Z,34.57
2023-05-10T15:16:18.921Z,34.73
2023-05-10T15:18:45.840Z,34.85
2023-05-10T15:21:13.157Z,35.52
2023-05-10T15:23:39.975Z,35.56
2023-05-10T15:26:07.009Z,36.30
2023-05-10T15:28:34.522Z,37.55
2023-05-10T15:31:01.603Z,37.32
2023-05-10T15:33:28.573Z,37.83
2023-05-10T15:35:55.775Z,38.15
2023-05-10T15:38:22.672Z,38.24
2023-05-10T15:40:49.591Z,38.72
2023-05-10T15:43:17.347Z,39.62
2023-05-10T15:45:44.313Z,40.07
2023-05-10T15:48:11.224Z,40.39
2023-05-10T15:50:38.198Z,40.46
2023-05-10T15:53:05.119Z,40.94
2023-05-10T15:55:32.359Z,41.32
2023-05-10T15:57:59.201Z,41.58
2023-05-10T16:00:26.110Z,42.23
2023-05-10T16:02:54.203Z,42.81
2023-05-10T16:05:21.627Z,42.69
2023-05-10T16:07:49.297Z,43.51
2023-05-10T16:10:16.372Z,43.35
2023-05-10T16:12:43.333Z,43.79
2023-05-10T16:15:10.747Z,44.06
2023-05-10T16:17:37.935Z,44.22
2023-05-10T16:20:06.024Z,43.84
2023-05-10T16:22:32.952Z,44.08
2023-05-10T16:24:59.935Z,43.89
2023-05-10T16:27:30.314Z,43.87
2023-05-10T16:29:57.271Z,44.34
2023-05-10T16:32:24.217Z,44.08
2023-05-10T16:34:51.298Z,44.25
2023-05-10T16:37:18.322Z,44.60
2023-05-10T16:39:45.381Z,44.27
2023-05-10T16:42:12.315Z,44.34
2023-05-10T16:44:39.237Z,45.21
2023-05-10T16:47:06.258Z,44.74
2023-05-10T16:49:33.194Z,45.23
2023-05-10T16:52:00.688Z,45.35
2023-05-10T16:54:29.252Z,46.10
2023-05-10T16:56:56.259Z,46.35
2023-05-10T16:59:23.077Z,46.52
2023-05-10T17:01:50.099Z,46.83
2023-05-10T17:04:17.878Z,47.97
2023-05-10T17:06:44.815Z,47.62
2023-05-10T17:09:12.292Z,47.84
2023-05-10T17:11:39.271Z,48.69
2023-05-10T17:14:06.113Z,48.48
2023-05-10T17:16:33.171Z,49.02
2023-05-10T17:19:00.223Z,49.41
2023-05-10T17:21:27.741Z,49.47
2023-05-10T17:23:54.653Z,49.92
2023-05-10T17:26:22.315Z,50.08
2023-05-10T17:28:49.291Z,50.59
2023-05-10T17:31:16.288Z,50.98
2023-05-10T17:33:43.301Z,51.13
2023-05-10T17:36:10.258Z,51.04
2023-05-10T17:38:38.519Z,51.59
2023-05-10T17:41:05.411Z,51.58
2023-05-10T17:43:32.341Z,52.71
2023-05-10T17:45:59.396Z,53.06
2023-05-10T17:48:26.737Z,52.59
2023-05-10T17:50:53.704Z,52.67
2023-05-10T17:53:20.642Z,52.76
2023-05-10T17:55:47.751Z,52.67
2023-05-10T17:58:14.568Z,53.07
2023-05-10T18:00:41.596Z,53.03
2023-05-10T18:03:08.527Z,53.53
2023-05-10T18:05:37.270Z,53.25
2023-05-10T18:08:04.780Z,53.39
2023-05-10T18:10:32.307Z,53.68
2023-05-10T18:12:59.227Z,53.92
2023-05-10T18:15:27.718Z,53.77
2023-05-10T18:17:55.912Z,54.39
2023-05-10T18:20:23.207Z,54.03
2023-05-10T18:22:50.414Z,54.14
2023-05-10T18:25:17.684Z,53.83
2023-05-10T18:27:44.693Z,53.63
2023-05-10T18:30:12.699Z,53.92
2023-05-10T18:32:39.857Z,53.81
2023-05-10T18:35:08.163Z,53.75
2023-05-10T18:37:35.604Z,53.78
2023-05-10T18:40:02.820Z,53.62
2023-05-10T18:42:30.009Z,53.72
2023-05-10T18:44:56.816Z,53.53
2023-05-10T18:47:23.752Z,53.59
2023-05-10T18:49:50.768Z,53.51
2023-05-10T18:52:17.662Z,53.51
2023-05-10T18:54:44.858Z,53.41
2023-05-10T18:57:12.532Z,53.36
2023-05-10T18:59:39.890Z,53.62
2023-05-10T19:02:07.394Z,53.53
2023-05-10T19:04:34.538Z,53.64
2023-05-10T19:07:02.326Z,53.69
2023-05-10T19:09:29.564Z,53.98
2023-05-10T19:11:56.921Z,54.20
2023-05-10T19:14:25.560Z,54.33
2023-05-10T19:16:53.726Z,54.42
2023-05-10T19:19:24.662Z,54.51
2023-05-10T19:21:53.269Z,54.84
2023-05-10T19:24:25.180Z,54.97
2023-05-10T19:26:52.344Z,54.99
2023-05-10T19:29:20.072Z,55.01
2023-05-10T19:31:49.182Z,55.26
2023-05-10T19:34:17.109Z,55.15
2023-05-10T19:36:45.193Z,55.30
2023-05-10T19:39:13.342Z,55.20
2023-05-10T19:41:40.915Z,55.03
2023-05-10T19:44:08.565Z,55.19
2023-05-10T19:46:35.934Z,55.17
2023-05-10T19:49:03.981Z,55.39
2023-05-10T19:51:31.352Z,55.31
2023-05-10T19:53:58.532Z,55.55
2023-05-10T19:56:27.226Z,55.29
2023-05-10T19:58:54.318Z,55.45
2023-05-10T20:01:21.607Z,55.51
2023-05-10T20:03:48.782Z,55.72
2023-05-10T20:06:15.858Z,55.96
2023-05-10T20:08:43.004Z,56.06
2023-05-10T20:11:10.126Z,56.46
2023-05-10T20:13:37.214Z,56.56
2023-05-10T20:16:05.385Z,57.11
2023-05-10T20:18:32.555Z,57.61
2023-05-10T20:21:01.395Z,57.34
2023-05-10T20:23:28.542Z,57.82
2023-05-10T20:25:55.685Z,58.23
2023-05-10T20:28:24.272Z,58.54
2023-05-10T20:30:54.016Z,59.03
2023-05-10T20:33:25.375Z,59.25
2023-05-10T20:35:52.729Z,59.77
2023-05-10T20:38:19.845Z,59.85
2023-05-10T20:40:47.521Z,60.38
2023-05-10T20:43:15.980Z,61.28
2023-05-10T20:45:43.091Z,61.05
2023-05-10T20:48:10.510Z,61.47
2023-05-10T20:50:37.571Z,62.24
2023-05-10T20:53:04.796Z,62.82
2023-05-10T20:55:31.898Z,62.87
2023-05-10T20:57:58.848Z,63.06
2023-05-10T21:00:26.213Z,63.01
2023-05-10T21:02:53.233Z,62.72
2023-05-10T21:05:20.205Z,62.68
2023-05-10T21:07:47.112Z,62.40
2023-05-10T21:10:13.991Z,62.53
2023-05-10T21:12:41.160Z,62.97
2023-05-10T21:15:08.695Z,62.41
2023-05-10T21:17:35.777Z,62.81
2023-05-10T21:20:02.836Z,62.76
2023-05-10T21:22:29.908Z,63.10
2023-05-10T21:24:56.910Z,63.95
2023-05-10T21:27:24.159Z,64.11
2023-05-10T21:29:50.998Z,64.05
2023-05-10T21:32:17.917Z,64.17
2023-05-10T21:34:44.788Z,64.16
2023-05-10T21:37:12.990Z,64.43
2023-05-10T21:39:39.841Z,64.59
2023-05-10T21:42:06.853Z,64.82
2023-05-10T21:44:33.683Z,65.12
2023-05-10T21:47:00.681Z,64.86
2023-05-10T21:49:27.546Z,65.11
2023-05-10T21:51:54.358Z,65.06
2023-05-10T21:54:21.341Z,65.35
2023-05-10T21:56:48.558Z,66.04
2023-05-10T21:59:15.448Z,65.88
2023-05-10T22:01:43.896Z,66.22
2023-05-10T22:04:10.929Z,66.24
2023-05-10T22:06:37.772Z,66.46
2023-05-10T22:09:05.195Z,66.62
2023-05-10T22:11:32.097Z,66.21
2023-05-10T22:13:59.175Z,66.78
2023-05-10T22:16:26.221Z,66.98
2023-05-10T22:18:54.590Z,66.17
2023-05-10T22:21:21.722Z,66.81
2023-05-10T22:23:48.701Z,66.72
2023-05-10T22:26:15.548Z,66.50
2023-05-10T22:28:42.491Z,66.83
2023-05-10T22:31:11.532Z,66.83
2023-05-10T22:33:38.666Z,67.32
2023-05-10T22:36:06.374Z,67.32
2023-05-10T22:38:33.344Z,66.94
2023-05-10T22:41:00.201Z,66.90
2023-05-10T22:43:27.099Z,66.78
2023-05-10T22:45:54.443Z,66.95
2023-05-10T22:48:22.127Z,66.86
2023-05-10T22:50:49.023Z,66.76
2023-05-10T22:53:16.422Z,67.20
2023-05-10T22:55:43.381Z,67.06
2023-05-10T22:58:10.542Z,66.88
2023-05-10T23:00:38.273Z,66.77
2023-05-10T23:03:06.758Z,67.33
2023-05-10T23:05:33.687Z,67.33
2023-05-10T23:08:00.906Z,67.21
2023-05-10T23:10:27.894Z,67.09
2023-05-10T23:12:56.014Z,67.17
2023-05-10T23:15:23.074Z,67.30
2023-05-10T23:17:50.407Z,66.95
2023-05-10T23:20:17.621Z,67.55
2023-05-10T23:22:44.990Z,67.27
2023-05-10T23:25:13.271Z,67.66
2023-05-10T23:27:40.204Z,67.41
2023-05-10T23:30:07.811Z,67.68
2023-05-10T23:32:34.691Z,67.81
2023-05-10T23:35:01.597Z,67.81
2023-05-10T23:37:29.055Z,67.92
2023-05-10T23:39:56.033Z,67.77
2023-05-10T23:42:22.881Z,68.19
2023-05-10T23:44:51.148Z,68.24
2023-05-10T23:47:18.127Z,68.23
2023-05-10T23:49:45.013Z,68.26
2023-05-10T23:52:11.899Z,68.42
2023-05-10T23:54:38.800Z,68.62
2023-05-10T23:57:05.641Z,68.46
2023-05-10T23:59:32.520Z,68.75
